KDAN/DAN METAR and TAF weather

Enter ICAO airport designator
Station Type Date Time Source
KDAN METAR 2019/06/16 11:53 UTC NOAA

KDAN 161153Z AUTO 22006KT 10SM CLR 19/15 A3004 RMK AO2 SLP162 T01890150 10189 20150 53004


Station Type Date Time Source
KDAN Decoded METAR 2019/06/16 11:53 UTC NOAA

DANVILLE REGIONAL AIRPORT, VA, United States (KDAN) 36-34N 079-20W 175M
Jun 16, 2019 - 07:53 AM EDT / 2019.06.16 1153 UTC
Wind: from the SW (220 degrees) at 7 MPH (6 KT):0
Visibility: 10 mile(s):0
Sky conditions: clear
Temperature: 66.0 F (18.9 C)
Dew Point: 59.0 F (15.0 C)
Relative Humidity: 78%
Pressure (altimeter): 30.04 in. Hg (1017 hPa)
Pressure tendency: 0.01 inches (0.4 hPa) higher than three hours ago
ob: KDAN 161153Z AUTO 22006KT 10SM CLR 19/15 A3004 RMK AO2 SLP162 T01890150 10189 20150 53004
cycle: 12

Station Type Date Time Source
KDAN TAF 2019/06/16 12:30 UTC NOAA

TAF KDAN 161129Z 1612/1712 22008KT P6SM FEW200
FM161400 23009KT P6SM FEW200
FM162000 22009KT P6SM SCT200
FM170100 23006KT P6SM SCT250

Example: see airport list